createdAt,value
2019-01-12T00:01:09.606Z,18.23
2019-01-12T00:03:38.995Z,18.10
2019-01-12T00:06:08.416Z,17.13
2019-01-12T00:08:37.893Z,23.17
2019-01-12T00:11:07.322Z,22.17
2019-01-12T00:13:36.790Z,19.20
2019-01-12T00:16:06.219Z,21.73
2019-01-12T00:18:35.698Z,18.43
2019-01-12T00:21:05.187Z,26.93
2019-01-12T00:23:36.232Z,16.97
2019-01-12T00:26:05.812Z,17.17
2019-01-12T00:28:35.280Z,19.13
2019-01-12T00:31:04.989Z,23.57
2019-01-12T00:33:34.544Z,18.57
2019-01-12T00:36:04.739Z,16.27
2019-01-12T00:38:34.138Z,18.47
2019-01-12T00:41:03.584Z,16.00
2019-01-12T00:43:33.063Z,17.70
2019-01-12T00:46:02.491Z,13.10
2019-01-12T00:48:31.896Z,11.27
2019-01-12T00:51:01.409Z,9.03
2019-01-12T00:53:31.041Z,7.20
2019-01-12T00:56:00.542Z,7.30
2019-01-12T00:58:29.947Z,11.90
2019-01-12T01:00:59.447Z,10.57
2019-01-12T01:03:29.049Z,12.67
2019-01-12T01:05:58.574Z,9.60
2019-01-12T01:08:28.128Z,11.57
2019-01-12T01:10:57.550Z,9.30
2019-01-12T01:13:27.149Z,13.90
2019-01-12T01:15:56.644Z,12.40
2019-01-12T01:18:26.103Z,12.13
2019-01-12T01:20:55.528Z,17.10
2019-01-12T01:23:25.079Z,11.03
2019-01-12T01:25:54.512Z,13.63
2019-01-12T01:28:23.979Z,13.93
2019-01-12T01:30:53.505Z,12.80
2019-01-12T01:33:27.950Z,21.17
2019-01-12T01:35:54.034Z,12.93
2019-01-12T01:38:23.416Z,9.47
2019-01-12T01:40:53.072Z,21.10
2019-01-12T01:43:22.609Z,15.43
2019-01-12T01:45:52.112Z,14.23
2019-01-12T01:48:21.574Z,14.00
2019-01-12T01:50:51.128Z,20.40
2019-01-12T01:53:22.330Z,14.67
2019-01-12T01:55:52.092Z,14.27
2019-01-12T01:58:21.795Z,10.47
2019-01-12T02:00:54.287Z,15.40
2019-01-12T02:03:23.857Z,14.73
2019-01-12T02:05:53.215Z,15.53
2019-01-12T02:08:22.759Z,21.87
2019-01-12T02:10:52.425Z,15.80
2019-01-12T02:13:21.922Z,15.60
2019-01-12T02:15:51.528Z,12.43
2019-01-12T02:18:20.941Z,13.00
2019-01-12T02:20:50.627Z,10.47
2019-01-12T02:23:20.021Z,9.33
2019-01-12T02:25:49.651Z,16.87
2019-01-12T02:28:19.112Z,14.17
2019-01-12T02:30:48.516Z,12.23
2019-01-12T02:33:17.988Z,16.40
2019-01-12T02:35:47.539Z,12.23
2019-01-12T02:38:17.019Z,18.57
2019-01-12T02:40:46.420Z,12.83
2019-01-12T02:43:16.014Z,18.87
2019-01-12T02:45:45.457Z,15.37
2019-01-12T02:48:14.875Z,19.47
2019-01-12T02:50:44.401Z,22.40
2019-01-12T02:53:14.061Z,17.23
2019-01-12T02:55:43.694Z,18.90
2019-01-12T02:58:13.222Z,13.63
2019-01-12T03:00:42.692Z,20.70
2019-01-12T03:03:12.132Z,12.93
2019-01-12T03:05:41.727Z,10.10
2019-01-12T03:08:11.224Z,15.73
2019-01-12T03:10:40.918Z,16.23
2019-01-12T03:13:10.278Z,14.67
2019-01-12T03:15:40.042Z,17.10
2019-01-12T03:18:09.642Z,17.00
2019-01-12T03:20:39.162Z,14.77
2019-01-12T03:23:08.534Z,15.23
2019-01-12T03:25:38.472Z,19.07
2019-01-12T03:28:07.986Z,12.07
2019-01-12T03:30:37.524Z,12.67
2019-01-12T03:33:06.977Z,9.60
2019-01-12T03:35:36.605Z,10.27
2019-01-12T03:38:06.107Z,13.13
2019-01-12T03:40:35.646Z,10.43
2019-01-12T03:43:05.140Z,7.80
2019-01-12T03:45:34.888Z,14.47
2019-01-12T03:48:04.424Z,10.23
2019-01-12T03:50:33.959Z,9.77
2019-01-12T03:53:04.032Z,17.27
2019-01-12T03:55:33.446Z,16.90
2019-01-12T03:58:02.970Z,9.80
2019-01-12T04:00:32.746Z,13.90
2019-01-12T04:03:02.318Z,12.03
2019-01-12T04:05:31.773Z,12.90
2019-01-12T04:08:01.171Z,10.80
2019-01-12T04:10:30.648Z,11.50
2019-01-12T04:13:00.183Z,16.80
2019-01-12T04:15:29.709Z,9.57
2019-01-12T04:17:59.229Z,15.63
2019-01-12T04:20:28.779Z,13.80
2019-01-12T04:22:58.253Z,17.13
2019-01-12T04:25:33.746Z,9.97
2019-01-12T04:27:58.826Z,13.90
2019-01-12T04:30:28.636Z,13.00
2019-01-12T04:32:58.810Z,10.37
2019-01-12T04:35:28.278Z,14.53
2019-01-12T04:37:57.696Z,14.70
2019-01-12T04:40:27.186Z,8.70
2019-01-12T04:42:58.852Z,10.13
2019-01-12T04:45:28.318Z,11.83
2019-01-12T04:47:59.077Z,9.07
2019-01-12T04:50:28.542Z,13.97
2019-01-12T04:52:58.082Z,11.57
2019-01-12T04:55:27.657Z,7.23
2019-01-12T04:57:57.176Z,6.33
2019-01-12T05:00:26.647Z,6.50
2019-01-12T05:02:56.528Z,8.60
2019-01-12T05:05:25.900Z,10.43
2019-01-12T05:07:55.544Z,6.63
2019-01-12T05:10:25.071Z,7.57
2019-01-12T05:12:54.462Z,4.10
2019-01-12T05:15:23.940Z,5.27
2019-01-12T05:17:53.464Z,4.40
2019-01-12T05:20:22.990Z,5.13
2019-01-12T05:22:52.473Z,5.90
2019-01-12T05:25:23.480Z,6.00
2019-01-12T05:27:53.117Z,3.97
2019-01-12T05:30:24.105Z,7.07
2019-01-12T05:32:53.667Z,6.47
2019-01-12T05:35:23.298Z,7.30
2019-01-12T05:37:52.764Z,6.10
2019-01-12T05:40:22.172Z,6.67
2019-01-12T05:42:51.707Z,7.77
2019-01-12T05:45:21.600Z,7.93
2019-01-12T05:47:51.063Z,8.43
2019-01-12T05:50:20.507Z,9.50
2019-01-12T05:52:50.249Z,8.37
2019-01-12T05:55:19.685Z,11.60
2019-01-12T05:57:49.292Z,6.20
2019-01-12T06:00:20.132Z,8.53
2019-01-12T06:02:50.291Z,8.17
2019-01-12T06:05:19.715Z,12.37
2019-01-12T06:07:49.350Z,9.40
2019-01-12T06:10:18.980Z,8.17
2019-01-12T06:12:48.390Z,10.30
2019-01-12T06:15:20.938Z,11.17
2019-01-12T06:17:52.238Z,9.37
2019-01-12T06:20:23.243Z,7.50
2019-01-12T06:22:52.721Z,5.10
2019-01-12T06:25:22.148Z,7.30
2019-01-12T06:27:51.737Z,6.63
2019-01-12T06:30:21.227Z,5.00
2019-01-12T06:32:51.642Z,8.07
2019-01-12T06:35:21.056Z,7.70
2019-01-12T06:37:50.601Z,7.20
2019-01-12T06:40:20.196Z,6.37
2019-01-12T06:42:49.667Z,7.97
2019-01-12T06:45:19.186Z,8.57
2019-01-12T06:47:48.685Z,8.00
2019-01-12T06:50:20.117Z,7.97
2019-01-12T06:52:49.530Z,8.83
2019-01-12T06:55:19.021Z,7.80
2019-01-12T06:57:48.523Z,6.83
2019-01-12T07:00:18.910Z,9.20
2019-01-12T07:02:48.506Z,9.90
2019-01-12T07:05:18.059Z,9.13
2019-01-12T07:07:47.632Z,10.47
2019-01-12T07:10:17.349Z,9.03
2019-01-12T07:12:46.777Z,9.83
2019-01-12T07:15:16.317Z,11.37
2019-01-12T07:17:45.744Z,12.80
2019-01-12T07:20:16.459Z,15.40
2019-01-12T07:22:46.469Z,16.40
2019-01-12T07:25:16.867Z,13.90
2019-01-12T07:27:46.310Z,16.07
2019-01-12T07:30:18.007Z,14.40
2019-01-12T07:32:47.436Z,13.97
2019-01-12T07:35:16.976Z,18.60
2019-01-12T07:37:46.332Z,13.83
2019-01-12T07:40:15.937Z,14.23
2019-01-12T07:42:45.423Z,16.57
2019-01-12T07:45:14.898Z,13.50
2019-01-12T07:47:44.324Z,18.33
2019-01-12T07:50:15.017Z,18.70
2019-01-12T07:52:44.561Z,20.00
2019-01-12T07:55:14.036Z,20.07
2019-01-12T07:57:43.680Z,19.23
2019-01-12T08:00:20.762Z,22.00
2019-01-12T08:02:50.288Z,20.83
2019-01-12T08:05:21.402Z,25.33
2019-01-12T08:07:51.272Z,19.23
2019-01-12T08:10:22.946Z,23.77
2019-01-12T08:12:52.502Z,23.00
2019-01-12T08:15:22.314Z,30.93
2019-01-12T08:17:52.022Z,25.00
2019-01-12T08:20:21.624Z,29.37
2019-01-12T08:22:51.313Z,29.20
2019-01-12T08:25:20.811Z,26.97
2019-01-12T08:27:50.286Z,31.63
2019-01-12T08:30:19.827Z,31.37
2019-01-12T08:32:49.353Z,30.73
2019-01-12T08:35:18.859Z,31.57
2019-01-12T08:37:48.310Z,32.70
2019-01-12T08:40:17.765Z,37.13
2019-01-12T08:42:47.390Z,36.93
2019-01-12T08:45:16.970Z,34.90
2019-01-12T08:47:46.592Z,34.97
2019-01-12T08:50:17.716Z,36.80
2019-01-12T08:52:47.876Z,35.50
2019-01-12T08:55:19.044Z,36.80
2019-01-12T08:57:48.569Z,35.77
2019-01-12T09:00:19.795Z,38.80
2019-01-12T09:02:49.425Z,45.47
2019-01-12T09:05:19.058Z,44.13
2019-01-12T09:07:48.744Z,38.50
2019-01-12T09:10:19.801Z,40.23
2019-01-12T09:12:49.633Z,42.97
2019-01-12T09:15:19.198Z,37.40
2019-01-12T09:17:49.539Z,39.40
2019-01-12T09:20:19.160Z,37.70
2019-01-12T09:22:48.621Z,43.97
2019-01-12T09:25:18.881Z,37.80
2019-01-12T09:27:48.553Z,36.77
2019-01-12T09:30:21.856Z,33.13
2019-01-12T09:32:52.145Z,34.60
2019-01-12T09:35:21.691Z,34.67
2019-01-12T09:37:51.174Z,32.47
2019-01-12T09:40:20.833Z,38.60
2019-01-12T09:42:50.368Z,39.60
2019-01-12T09:45:20.102Z,33.63
2019-01-12T09:47:49.632Z,31.80
2019-01-12T09:50:19.947Z,29.10
2019-01-12T09:52:49.759Z,27.60
2019-01-12T09:55:19.250Z,27.60
2019-01-12T09:57:48.762Z,29.50
2019-01-12T10:00:20.472Z,25.27
2019-01-12T10:02:50.015Z,25.60
2019-01-12T10:05:21.633Z,22.97
2019-01-12T10:07:51.155Z,23.07
2019-01-12T10:10:21.586Z,20.90
2019-01-12T10:12:51.167Z,24.50
2019-01-12T10:15:20.648Z,21.97
2019-01-12T10:17:50.344Z,22.10
2019-01-12T10:20:20.086Z,19.77
2019-01-12T10:22:49.597Z,22.23
2019-01-12T10:25:19.191Z,18.37
2019-01-12T10:27:48.940Z,18.17
2019-01-12T10:30:23.195Z,16.07
2019-01-12T10:32:52.852Z,16.27
2019-01-12T10:35:23.047Z,16.07
2019-01-12T10:37:52.617Z,14.87
2019-01-12T10:40:22.075Z,14.90
2019-01-12T10:42:52.299Z,15.17
2019-01-12T10:45:22.609Z,14.80
2019-01-12T10:47:52.763Z,14.87
2019-01-12T10:50:25.232Z,14.17
2019-01-12T10:52:54.875Z,12.67
2019-01-12T10:55:25.026Z,15.03
2019-01-12T10:57:56.166Z,13.53
2019-01-12T11:00:29.396Z,19.03
2019-01-12T11:02:58.978Z,16.03
2019-01-12T11:05:28.714Z,16.33
2019-01-12T11:07:58.350Z,19.83
2019-01-12T11:10:29.406Z,22.57
2019-01-12T11:12:59.045Z,19.93
2019-01-12T11:15:28.586Z,19.57
2019-01-12T11:17:58.057Z,16.93
2019-01-12T11:20:27.684Z,24.87
2019-01-12T11:22:57.352Z,26.17
2019-01-12T11:25:26.801Z,24.23
2019-01-12T11:27:56.213Z,21.13
2019-01-12T11:30:25.659Z,19.50
2019-01-12T11:32:55.131Z,21.03
2019-01-12T11:35:24.659Z,23.77
2019-01-12T11:37:54.142Z,22.20
2019-01-12T11:40:23.674Z,24.90
2019-01-12T11:42:53.570Z,25.23
2019-01-12T11:45:24.628Z,26.07
2019-01-12T11:47:54.099Z,23.93
2019-01-12T11:50:23.653Z,25.33
2019-01-12T11:52:54.296Z,23.30
2019-01-12T11:55:23.831Z,24.10
2019-01-12T11:57:54.830Z,21.93
2019-01-12T12:00:26.451Z,24.50
2019-01-12T12:02:56.234Z,22.93
2019-01-12T12:05:26.384Z,23.43
2019-01-12T12:07:57.088Z,23.83
2019-01-12T12:10:26.482Z,21.90
2019-01-12T12:12:56.021Z,25.20
2019-01-12T12:15:26.059Z,21.10
2019-01-12T12:17:57.099Z,20.47
2019-01-12T12:20:26.943Z,32.20
2019-01-12T12:22:56.787Z,31.23
2019-01-12T12:25:26.257Z,24.37
2019-01-12T12:27:55.787Z,28.47
2019-01-12T12:30:27.476Z,27.60
2019-01-12T12:32:57.098Z,25.97
2019-01-12T12:35:26.534Z,30.63
2019-01-12T12:37:56.071Z,26.37
2019-01-12T12:40:26.239Z,27.13
2019-01-12T12:42:55.769Z,27.77
2019-01-12T12:45:29.434Z,26.40
2019-01-12T12:47:58.944Z,31.20
2019-01-12T12:50:28.481Z,27.97
2019-01-12T12:52:58.115Z,27.77
2019-01-12T12:55:27.716Z,28.63
2019-01-12T12:57:57.343Z,30.47
2019-01-12T13:00:29.099Z,33.87
2019-01-12T13:02:58.622Z,37.63
2019-01-12T13:05:28.163Z,24.17
2019-01-12T13:07:57.682Z,27.33
2019-01-12T13:10:29.440Z,25.60
2019-01-12T13:12:59.013Z,22.23
2019-01-12T13:15:28.620Z,25.83
2019-01-12T13:17:58.047Z,31.83
2019-01-12T13:20:27.716Z,21.47
2019-01-12T13:22:58.911Z,27.23
2019-01-12T13:25:29.569Z,28.27
2019-01-12T13:27:59.263Z,31.57
2019-01-12T13:30:30.393Z,31.37
2019-01-12T13:32:59.895Z,27.20
2019-01-12T13:35:29.580Z,31.90
2019-01-12T13:37:59.754Z,25.87
2019-01-12T13:40:29.540Z,31.13
2019-01-12T13:42:59.098Z,26.03
2019-01-12T13:45:28.570Z,30.97
2019-01-12T13:47:58.255Z,24.17
2019-01-12T13:50:28.183Z,29.77
2019-01-12T13:52:57.612Z,25.40
2019-01-12T13:55:27.160Z,26.97
2019-01-12T13:57:56.791Z,26.53
2019-01-12T14:00:33.472Z,28.33
2019-01-12T14:03:03.155Z,30.10
2019-01-12T14:05:32.691Z,28.17
2019-01-12T14:08:02.201Z,26.97
2019-01-12T14:10:31.796Z,23.53
2019-01-12T14:13:02.860Z,27.70
2019-01-12T14:15:32.899Z,25.53
2019-01-12T14:18:02.332Z,30.77
2019-01-12T14:20:34.283Z,31.93
2019-01-12T14:23:03.705Z,30.27
2019-01-12T14:25:33.170Z,24.97
2019-01-12T14:28:02.606Z,23.00
2019-01-12T14:30:33.903Z,28.23
2019-01-12T14:33:03.647Z,28.33
2019-01-12T14:35:33.185Z,22.97
2019-01-12T14:38:02.687Z,29.37
2019-01-12T14:40:32.271Z,21.10
2019-01-12T14:43:01.911Z,29.37
2019-01-12T14:45:31.938Z,25.10
2019-01-12T14:48:01.846Z,27.60
2019-01-12T14:50:31.445Z,29.10
2019-01-12T14:53:00.934Z,26.80
2019-01-12T14:55:30.462Z,31.03
2019-01-12T14:58:02.783Z,26.23
2019-01-12T15:00:31.193Z,32.43
2019-01-12T15:03:00.656Z,34.57
2019-01-12T15:05:30.197Z,29.50
2019-01-12T15:07:59.731Z,29.47
2019-01-12T15:10:29.201Z,31.07
2019-01-12T15:12:58.832Z,32.30
2019-01-12T15:15:28.375Z,27.90
2019-01-12T15:17:57.904Z,33.13
2019-01-12T15:20:28.115Z,34.30
2019-01-12T15:22:57.660Z,27.13
2019-01-12T15:25:27.130Z,31.47
2019-01-12T15:27:56.760Z,24.90
2019-01-12T15:30:28.062Z,24.87
2019-01-12T15:32:58.202Z,29.37
2019-01-12T15:35:30.234Z,31.07
2019-01-12T15:37:59.715Z,31.43
2019-01-12T15:40:29.147Z,24.57
2019-01-12T15:42:58.618Z,28.60
2019-01-12T15:45:29.937Z,27.93
2019-01-12T15:47:59.475Z,33.40
2019-01-12T15:50:29.030Z,32.73
2019-01-12T15:52:58.662Z,25.93
2019-01-12T15:55:28.277Z,31.63
2019-01-12T15:57:58.043Z,35.40
2019-01-12T16:00:28.462Z,25.87
2019-01-12T16:02:57.947Z,21.07
2019-01-12T16:05:27.535Z,29.57
2019-01-12T16:07:57.134Z,32.73
2019-01-12T16:10:26.839Z,22.90
2019-01-12T16:12:56.388Z,27.67
2019-01-12T16:15:26.102Z,26.57
2019-01-12T16:17:55.731Z,23.80
2019-01-12T16:20:33.947Z,30.57
2019-01-12T16:23:03.486Z,25.93
2019-01-12T16:25:33.162Z,25.43
2019-01-12T16:28:02.702Z,29.10
2019-01-12T16:30:33.613Z,25.73
2019-01-12T16:33:03.271Z,25.63
2019-01-12T16:35:34.298Z,25.93
2019-01-12T16:38:03.991Z,32.00
2019-01-12T16:40:33.467Z,24.37
2019-01-12T16:43:04.464Z,23.13
2019-01-12T16:45:34.084Z,28.10
2019-01-12T16:48:03.711Z,29.00
2019-01-12T16:50:33.223Z,34.90
2019-01-12T16:53:02.789Z,31.00
2019-01-12T16:55:32.536Z,29.17
2019-01-12T16:58:02.077Z,34.23
2019-01-12T17:00:31.631Z,32.57
2019-01-12T17:03:01.102Z,27.50
2019-01-12T17:05:30.634Z,34.67
2019-01-12T17:08:00.214Z,27.47
2019-01-12T17:10:32.043Z,27.77
2019-01-12T17:13:02.311Z,30.97
2019-01-12T17:15:34.881Z,35.33
2019-01-12T17:18:03.192Z,28.60
2019-01-12T17:20:32.684Z,37.57
2019-01-12T17:23:02.088Z,31.07
2019-01-12T17:25:32.459Z,38.50
2019-01-12T17:28:02.058Z,28.47
2019-01-12T17:30:31.679Z,29.33
2019-01-12T17:33:01.142Z,31.80
2019-01-12T17:35:31.378Z,31.87
2019-01-12T17:38:00.844Z,43.50
2019-01-12T17:40:31.802Z,39.17
2019-01-12T17:43:01.414Z,35.83
2019-01-12T17:45:30.808Z,34.00
2019-01-12T17:48:00.194Z,32.10
2019-01-12T17:50:29.801Z,33.90
2019-01-12T17:53:00.821Z,30.60
2019-01-12T17:55:30.296Z,33.23
2019-01-12T17:57:59.832Z,35.57
2019-01-12T18:00:34.291Z,27.30
2019-01-12T18:03:03.819Z,29.03
2019-01-12T18:05:33.263Z,37.23
2019-01-12T18:08:02.957Z,26.97
2019-01-12T18:10:32.316Z,27.97
2019-01-12T18:13:01.767Z,22.00
2019-01-12T18:15:31.195Z,19.77
2019-01-12T18:18:02.456Z,21.60
2019-01-12T18:20:32.036Z,21.60
2019-01-12T18:23:01.492Z,19.80
2019-01-12T18:25:31.275Z,28.47
2019-01-12T18:28:00.867Z,26.43
2019-01-12T18:30:30.391Z,26.40
2019-01-12T18:33:01.462Z,29.40
2019-01-12T18:35:30.822Z,22.97
2019-01-12T18:38:00.434Z,22.47
2019-01-12T18:40:30.002Z,28.87
2019-01-12T18:42:59.634Z,24.20
2019-01-12T18:45:29.076Z,30.67
2019-01-12T18:47:58.670Z,30.90
2019-01-12T18:50:28.164Z,38.80
2019-01-12T18:52:57.623Z,35.57
2019-01-12T18:55:28.780Z,26.77
2019-01-12T18:57:58.699Z,27.47
2019-01-12T19:00:29.095Z,27.07
2019-01-12T19:02:58.640Z,36.60
2019-01-12T19:05:28.242Z,34.43
2019-01-12T19:07:57.984Z,32.93
2019-01-12T19:10:29.086Z,35.87
2019-01-12T19:12:58.502Z,30.43
2019-01-12T19:15:29.086Z,33.83
2019-01-12T19:17:58.555Z,32.07
2019-01-12T19:20:28.676Z,31.77
2019-01-12T19:22:58.150Z,26.63
2019-01-12T19:25:27.550Z,28.57
2019-01-12T19:27:57.052Z,27.67
2019-01-12T19:30:26.768Z,32.93
2019-01-12T19:32:56.531Z,29.83
2019-01-12T19:35:26.218Z,31.10
2019-01-12T19:37:55.834Z,34.10
2019-01-12T19:40:25.402Z,33.63
2019-01-12T19:42:55.003Z,33.50
2019-01-12T19:45:24.506Z,34.77
2019-01-12T19:47:53.923Z,27.83
2019-01-12T19:50:24.141Z,28.53
2019-01-12T19:52:53.838Z,38.00
2019-01-12T19:55:23.496Z,42.50
2019-01-12T19:57:53.043Z,29.10
2019-01-12T20:00:27.938Z,38.03
2019-01-12T20:02:57.561Z,26.00
2019-01-12T20:05:27.170Z,36.07
2019-01-12T20:07:56.659Z,37.03
2019-01-12T20:10:26.206Z,34.30
2019-01-12T20:12:55.812Z,39.97
2019-01-12T20:15:26.888Z,34.57
2019-01-12T20:17:56.617Z,29.10
2019-01-12T20:20:27.529Z,44.47
2019-01-12T20:22:57.189Z,32.00
2019-01-12T20:25:28.162Z,29.03
2019-01-12T20:27:57.703Z,31.10
2019-01-12T20:30:45.139Z,37.13
2019-01-12T20:33:26.585Z,28.13
2019-01-12T20:36:21.325Z,35.40
2019-01-12T20:38:56.884Z,28.73
2019-01-12T20:41:32.023Z,28.37
2019-01-12T20:44:17.053Z,36.43
2019-01-12T20:46:52.519Z,32.77
2019-01-12T20:49:30.824Z,32.73
2019-01-12T20:52:21.756Z,32.70
2019-01-12T20:55:13.562Z,29.97
2019-01-12T20:58:08.409Z,28.77
2019-01-12T21:00:43.686Z,33.70
2019-01-12T21:03:21.425Z,35.47
2019-01-12T21:06:09.335Z,25.80
2019-01-12T21:08:53.672Z,33.37
2019-01-12T21:11:58.251Z,27.20
2019-01-12T21:14:36.272Z,30.37
2019-01-12T21:17:05.878Z,28.57
2019-01-12T21:19:35.289Z,32.47
2019-01-12T21:22:05.186Z,32.27
2019-01-12T21:24:34.750Z,30.67
2019-01-12T21:27:04.629Z,31.67
2019-01-12T21:29:35.310Z,32.87
2019-01-12T21:32:05.025Z,33.40
2019-01-12T21:34:34.471Z,32.30
2019-01-12T21:37:05.508Z,32.37
2019-01-12T21:39:34.958Z,29.90
2019-01-12T21:42:04.719Z,36.20
2019-01-12T21:44:34.359Z,32.73
2019-01-12T21:47:04.332Z,30.93
2019-01-12T21:49:33.729Z,34.30
2019-01-12T21:52:03.351Z,33.27
2019-01-12T21:54:32.895Z,27.80
2019-01-12T21:57:02.855Z,39.30
2019-01-12T21:59:32.246Z,39.17
2019-01-12T22:02:01.920Z,32.67
2019-01-12T22:04:31.787Z,28.67
2019-01-12T22:07:01.177Z,34.03
2019-01-12T22:09:30.773Z,35.67
2019-01-12T22:12:01.800Z,33.23
2019-01-12T22:14:31.945Z,30.70
2019-01-12T22:17:01.547Z,35.47
2019-01-12T22:19:30.960Z,32.87
2019-01-12T22:22:00.776Z,37.43
2019-01-12T22:24:30.321Z,33.20
2019-01-12T22:26:59.755Z,36.03
2019-01-12T22:29:29.228Z,33.30
2019-01-12T22:31:58.642Z,34.43
2019-01-12T22:34:28.159Z,33.43
2019-01-12T22:36:57.699Z,35.27
2019-01-12T22:39:28.672Z,40.17
2019-01-12T22:41:58.066Z,38.17
2019-01-12T22:44:27.451Z,38.60
2019-01-12T22:46:56.928Z,24.67
2019-01-12T22:49:26.337Z,34.13
2019-01-12T22:51:55.939Z,31.30
2019-01-12T22:54:25.643Z,30.63
2019-01-12T22:56:55.083Z,45.10
2019-01-12T22:59:25.337Z,33.80
2019-01-12T23:01:55.504Z,32.10
2019-01-12T23:04:27.011Z,33.43
2019-01-12T23:06:56.501Z,32.80
2019-01-12T23:09:26.068Z,31.83
2019-01-12T23:11:55.503Z,28.80
2019-01-12T23:14:25.183Z,38.90
2019-01-12T23:16:54.715Z,36.87
2019-01-12T23:19:24.263Z,31.40
2019-01-12T23:21:55.224Z,35.13
2019-01-12T23:24:24.691Z,33.27
2019-01-12T23:26:54.159Z,35.20
2019-01-12T23:29:25.548Z,36.17
2019-01-12T23:31:55.009Z,32.60
2019-01-12T23:34:24.479Z,33.63
2019-01-12T23:36:54.023Z,29.53
2019-01-12T23:39:23.650Z,30.13
2019-01-12T23:41:54.810Z,33.47
2019-01-12T23:44:24.275Z,31.40
2019-01-12T23:46:53.850Z,32.20
2019-01-12T23:49:23.324Z,31.87
2019-01-12T23:51:52.799Z,27.63
2019-01-12T23:54:22.367Z,33.20
2019-01-12T23:56:52.047Z,31.07
2019-01-12T23:59:21.443Z,29.90
